Time;durP1;ratioP1;P1;durP2;ratioP2;P2;SDS_P1;SDS_P2;PMS_P1;PMS_P2;Temp;Humidity;BMP_temperature;BMP_pressure;BME280_temperature;BME280_humidity;BME280_pressure;Samples;Min_cycle;Max_cycle;Signal;HPM_P1;HPM_P2
2021/08/12 00:01:51;;;;;;;3.97;3.13;;;23.70;99.90;;;;;;6187028;23;20855;-66
2021/08/12 00:04:19;;;;;;;4.17;3.77;;;23.70;99.90;;;;;;6160666;23;20403;-66
2021/08/12 00:06:46;;;;;;;6.60;4.30;;;23.60;99.90;;;;;;6186894;23;20233;-66
2021/08/12 00:09:11;;;;;;;6.90;3.73;;;23.60;99.90;;;;;;6160788;23;20385;-67
2021/08/12 00:11:38;;;;;;;5.10;4.03;;;23.60;99.90;;;;;;6160320;23;20444;-68
2021/08/12 00:14:04;;;;;;;4.50;3.70;;;23.60;99.90;;;;;;6187347;23;20229;-63
2021/08/12 00:16:29;;;;;;;7.20;4.10;;;23.60;99.90;;;;;;6160375;23;20471;-63
2021/08/12 00:18:55;;;;;;;4.23;3.57;;;23.50;99.90;;;;;;6187180;23;20158;-68
2021/08/12 00:21:23;;;;;;;6.27;4.30;;;23.50;99.90;;;;;;6186883;23;20206;-63
2021/08/12 00:23:49;;;;;;;4.60;4.20;;;23.50;99.90;;;;;;6187116;23;20205;-66
2021/08/12 00:26:15;;;;;;;5.50;4.30;;;23.50;99.90;;;;;;6186625;23;20365;-66
2021/08/12 00:28:40;;;;;;;7.33;4.30;;;23.50;99.90;;;;;;6187007;23;20442;-66
2021/08/12 00:31:06;;;;;;;7.40;4.50;;;23.50;99.90;;;;;;6186676;23;20521;-66
2021/08/12 00:33:33;;;;;;;4.50;3.40;;;23.50;99.90;;;;;;6160334;23;20187;-66
2021/08/12 00:35:59;;;;;;;4.13;3.73;;;23.40;99.90;;;;;;6160310;23;20619;-63
2021/08/12 00:38:25;;;;;;;6.30;4.00;;;23.40;99.90;;;;;;6160022;23;20531;-63
2021/08/12 00:40:50;;;;;;;4.90;4.10;;;23.40;99.90;;;;;;6186630;23;20150;-65
2021/08/12 00:43:16;;;;;;;4.57;3.83;;;23.40;99.90;;;;;;6186676;23;20178;-63
2021/08/12 00:45:41;;;;;;;4.80;4.20;;;23.40;99.90;;;;;;6186692;23;20516;-66
2021/08/12 00:48:07;;;;;;;4.63;3.83;;;23.40;99.90;;;;;;6186648;23;20175;-63
2021/08/12 00:50:35;;;;;;;5.47;4.37;;;23.40;99.90;;;;;;6186441;23;20236;-66
2021/08/12 00:53:00;;;;;;;6.60;4.53;;;23.30;99.90;;;;;;6186473;23;20203;-66
2021/08/12 00:55:26;;;;;;;6.97;4.33;;;23.30;99.90;;;;;;6186627;23;20373;-65
2021/08/12 00:57:52;;;;;;;4.87;4.20;;;23.30;99.90;;;;;;6186450;23;20637;-63
2021/08/12 01:00:17;;;;;;;7.70;4.27;;;23.20;99.90;;;;;;6160083;23;20535;-66
2021/08/12 01:02:43;;;;;;;9.37;4.90;;;23.10;99.90;;;;;;6186346;23;20489;-67
2021/08/12 01:05:10;;;;;;;4.27;3.50;;;23.00;99.90;;;;;;6159946;23;20159;-66
2021/08/12 01:07:44;;;;;;;4.43;3.60;;;23.00;99.90;;;;;;6186291;23;20174;-66
2021/08/12 01:10:20;;;;;;;5.93;4.53;;;22.90;99.90;;;;;;6159853;23;20412;-66
2021/08/12 01:13:16;;;;;;;6.97;5.00;;;22.80;99.90;;;;;;6186429;23;20408;-63
2021/08/12 01:15:50;;;;;;;5.80;4.17;;;22.80;99.90;;;;;;6159989;23;20415;-66
2021/08/12 01:18:25;;;;;;;5.87;4.50;;;22.70;99.90;;;;;;6186583;23;20475;-64
2021/08/12 01:21:37;;;;;;;5.60;5.00;;;22.70;99.90;;;;;;6186496;23;20398;-65
2021/08/12 01:24:07;;;;;;;11.63;5.57;;;22.70;99.90;;;;;;6186732;23;20404;-63
2021/08/12 01:26:34;;;;;;;7.20;4.60;;;22.70;99.90;;;;;;6186140;23;20416;-67
2021/08/12 01:29:06;;;;;;;6.17;4.87;;;22.60;99.90;;;;;;6159950;23;20396;-63
2021/08/12 01:31:56;;;;;;;7.00;4.70;;;22.60;99.90;;;;;;6159712;23;20450;-66
2021/08/12 01:34:31;;;;;;;5.60;4.37;;;22.60;99.90;;;;;;6186830;23;20377;-66
2021/08/12 01:36:59;;;;;;;8.70;4.60;;;22.50;99.90;;;;;;6159555;23;20446;-63
2021/08/12 01:39:26;;;;;;;5.30;4.50;;;22.60;99.90;;;;;;6160136;23;20424;-66
2021/08/12 01:41:55;;;;;;;9.50;5.03;;;22.50;99.90;;;;;;6186127;23;20870;-63
2021/08/12 01:44:23;;;;;;;6.43;4.57;;;22.50;99.90;;;;;;6186670;23;20392;-63
2021/08/12 01:46:49;;;;;;;8.13;5.00;;;22.50;99.90;;;;;;6186091;23;20722;-63
2021/08/12 01:49:15;;;;;;;5.73;4.53;;;22.40;99.90;;;;;;6186632;23;20380;-66
2021/08/12 01:51:42;;;;;;;6.03;4.37;;;22.40;99.90;;;;;;6186002;23;20793;-63
2021/08/12 01:54:08;;;;;;;5.70;4.93;;;22.40;99.90;;;;;;6186612;23;20185;-66
2021/08/12 01:56:37;;;;;;;6.60;5.23;;;22.30;99.90;;;;;;6161664;23;20877;-63
2021/08/12 01:59:03;;;;;;;6.70;5.30;;;22.30;99.90;;;;;;6187976;23;20866;-63
2021/08/12 02:01:29;;;;;;;9.03;5.53;;;22.30;99.90;;;;;;6188148;23;20379;-63
2021/08/12 02:03:58;;;;;;;5.77;4.70;;;22.30;99.90;;;;;;6188537;23;20380;-66
2021/08/12 02:06:27;;;;;;;6.00;4.80;;;22.20;99.90;;;;;;6188045;23;20361;-66
2021/08/12 02:08:52;;;;;;;6.00;4.53;;;22.20;99.90;;;;;;6188475;23;20376;-67
2021/08/12 02:11:18;;;;;;;6.93;4.60;;;22.20;99.90;;;;;;6187888;23;20948;-66
2021/08/12 02:13:44;;;;;;;7.60;4.90;;;22.20;99.90;;;;;;6161852;23;20201;-67
2021/08/12 02:16:10;;;;;;;8.60;4.90;;;22.10;99.90;;;;;;6161461;23;20169;-63
2021/08/12 02:18:39;;;;;;;7.33;5.00;;;22.10;99.90;;;;;;6188175;23;20391;-66
2021/08/12 02:21:10;;;;;;;7.63;5.00;;;22.10;99.90;;;;;;6187839;23;20837;-63
2021/08/12 02:24:05;;;;;;;7.13;4.97;;;22.10;99.90;;;;;;6161687;23;20467;-66
2021/08/12 02:26:39;;;;;;;7.57;4.80;;;22.10;99.90;;;;;;6156729;23;20404;-67
2021/08/12 02:29:06;;;;;;;7.30;5.57;;;22.10;99.90;;;;;;6188387;23;20390;-63
2021/08/12 02:31:32;;;;;;;6.30;4.93;;;22.10;99.90;;;;;;6161322;23;20482;-63
2021/08/12 02:33:59;;;;;;;5.50;4.50;;;22.10;99.90;;;;;;6161528;23;20396;-63
2021/08/12 02:36:25;;;;;;;6.67;5.47;;;22.00;99.90;;;;;;6187494;23;20208;-62
2021/08/12 02:38:53;;;;;;;5.50;4.70;;;22.00;99.90;;;;;;6161390;23;20457;-66
2021/08/12 02:41:20;;;;;;;6.70;5.60;;;21.90;99.90;;;;;;6161314;23;20597;-63
2021/08/12 02:43:47;;;;;;;6.43;4.50;;;21.80;99.90;;;;;;6188143;23;20407;-67
2021/08/12 02:46:15;;;;;;;8.00;5.57;;;21.80;99.90;;;;;;6186067;23;20459;-66
2021/08/12 02:48:42;;;;;;;6.87;6.20;;;21.80;99.90;;;;;;6188041;23;20391;-66
2021/08/12 02:51:12;;;;;;;7.03;5.00;;;21.80;99.90;;;;;;6187583;23;20455;-66
2021/08/12 02:53:37;;;;;;;6.37;5.20;;;21.70;99.90;;;;;;6187998;23;20377;-66
2021/08/12 02:56:06;;;;;;;7.83;5.40;;;21.70;99.90;;;;;;6187603;23;20903;-66
2021/08/12 02:58:36;;;;;;;7.00;4.93;;;21.70;99.90;;;;;;6186132;23;20197;-63
2021/08/12 03:01:03;;;;;;;6.60;5.23;;;21.70;99.90;;;;;;6185835;23;20434;-63
2021/08/12 03:03:29;;;;;;;8.47;5.53;;;21.60;99.90;;;;;;6187900;23;20494;-66
2021/08/12 03:05:57;;;;;;;6.40;4.90;;;21.60;99.90;;;;;;6187226;23;20365;-66
2021/08/12 03:08:25;;;;;;;7.70;4.90;;;21.60;99.90;;;;;;6187468;23;20783;-63
2021/08/12 03:10:54;;;;;;;8.40;5.60;;;21.50;99.90;;;;;;6187358;23;20863;-67
2021/08/12 03:13:20;;;;;;;6.73;4.90;;;21.50;99.90;;;;;;6187736;23;20408;-63
2021/08/12 03:15:46;;;;;;;7.20;5.60;;;21.50;99.90;;;;;;6161018;23;20380;-63
2021/08/12 03:18:12;;;;;;;5.93;5.10;;;21.50;99.90;;;;;;6161067;23;20412;-63
2021/08/12 03:20:43;;;;;;;6.47;5.03;;;21.50;99.90;;;;;;6187425;23;20392;-66
2021/08/12 03:23:09;;;;;;;7.43;5.50;;;21.50;99.90;;;;;;6185943;23;20612;-63
2021/08/12 03:25:34;;;;;;;6.60;5.90;;;21.40;99.90;;;;;;6161033;23;20864;-63
2021/08/12 03:28:00;;;;;;;7.90;5.00;;;21.40;99.90;;;;;;6187400;23;20481;-63
2021/08/12 03:30:26;;;;;;;7.00;5.10;;;21.50;99.90;;;;;;6187320;23;20228;-66
2021/08/12 03:32:52;;;;;;;8.70;5.43;;;21.40;99.90;;;;;;6187416;23;20187;-66
2021/08/12 03:35:19;;;;;;;6.63;5.50;;;21.40;99.90;;;;;;6187011;23;20364;-66
2021/08/12 03:37:44;;;;;;;6.00;5.20;;;21.40;99.90;;;;;;6186889;23;20487;-63
2021/08/12 03:40:11;;;;;;;7.77;6.10;;;21.40;99.90;;;;;;6160767;23;20478;-66
2021/08/12 03:42:37;;;;;;;6.20;5.00;;;21.40;99.90;;;;;;6187075;23;20440;-62
2021/08/12 03:45:03;;;;;;;7.20;5.20;;;21.40;99.90;;;;;;6187179;23;20411;-66
2021/08/12 03:47:29;;;;;;;7.57;5.67;;;21.30;99.90;;;;;;6160449;23;20228;-63
2021/08/12 03:49:54;;;;;;;7.90;5.97;;;21.30;99.90;;;;;;6161215;23;20383;-65
2021/08/12 03:52:20;;;;;;;11.30;5.90;;;21.30;99.90;;;;;;6187151;23;20210;-66
2021/08/12 03:54:45;;;;;;;6.63;5.50;;;21.30;99.90;;;;;;6187665;23;20530;-63
2021/08/12 03:57:11;;;;;;;7.07;5.23;;;21.30;99.90;;;;;;6160578;23;20198;-67
2021/08/12 03:59:36;;;;;;;8.13;6.03;;;21.30;99.90;;;;;;6160967;23;20177;-64
2021/08/12 04:02:02;;;;;;;8.70;5.83;;;21.20;99.90;;;;;;6186512;23;20248;-66
2021/08/12 04:04:28;;;;;;;6.27;5.40;;;21.20;99.90;;;;;;6187579;23;20159;-63
2021/08/12 04:06:54;;;;;;;8.60;6.03;;;21.30;99.90;;;;;;6160390;23;20498;-67
2021/08/12 04:09:19;;;;;;;7.27;5.53;;;21.20;99.90;;;;;;6187388;23;20166;-63
2021/08/12 04:11:45;;;;;;;5.73;5.23;;;21.20;99.90;;;;;;6186743;23;20436;-66
2021/08/12 04:14:11;;;;;;;8.03;6.07;;;21.20;99.90;;;;;;6160740;23;20166;-62
2021/08/12 04:16:37;;;;;;;6.30;5.70;;;21.20;99.90;;;;;;6186828;23;20403;-63
2021/08/12 04:19:03;;;;;;;8.37;5.77;;;21.20;99.90;;;;;;6187151;23;20491;-66
2021/08/12 04:21:29;;;;;;;7.00;5.27;;;21.20;99.90;;;;;;6186631;23;20596;-63
2021/08/12 04:23:55;;;;;;;10.10;6.43;;;21.20;99.90;;;;;;6186223;23;20395;-63
2021/08/12 04:26:26;;;;;;;6.70;5.90;;;21.20;99.90;;;;;;6186104;23;20150;-63
2021/08/12 04:28:52;;;;;;;6.37;5.33;;;21.20;99.90;;;;;;6186442;23;20190;-63
2021/08/12 04:31:17;;;;;;;8.13;6.23;;;21.10;99.90;;;;;;6160086;23;20454;-66
2021/08/12 04:33:43;;;;;;;8.17;6.73;;;21.10;99.90;;;;;;6187087;23;20162;-63
2021/08/12 04:36:09;;;;;;;13.60;8.30;;;21.20;99.90;;;;;;6186524;23;20157;-64
2021/08/12 04:38:35;;;;;;;11.43;8.23;;;21.20;99.90;;;;;;6186848;23;20789;-63
2021/08/12 04:41:01;;;;;;;9.60;8.50;;;21.30;99.90;;;;;;6160281;23;20493;-65
2021/08/12 04:43:26;;;;;;;12.43;8.73;;;21.30;99.90;;;;;;6186838;23;20209;-65
2021/08/12 04:45:52;;;;;;;12.27;6.27;;;21.30;99.90;;;;;;6186704;23;20739;-64
2021/08/12 04:48:17;;;;;;;9.17;6.67;;;21.40;99.90;;;;;;6186549;23;20501;-63
2021/08/12 04:50:43;;;;;;;9.20;6.43;;;21.40;99.90;;;;;;6160118;23;20207;-65
2021/08/12 04:53:09;;;;;;;10.13;6.20;;;21.50;99.90;;;;;;6160138;23;20257;-63
2021/08/12 04:55:34;;;;;;;6.83;5.87;;;21.50;99.90;;;;;;6186607;23;20154;-63
2021/08/12 04:58:00;;;;;;;8.13;5.93;;;21.60;99.90;;;;;;6185507;23;20175;-66
2021/08/12 05:00:25;;;;;;;8.70;6.20;;;21.60;99.90;;;;;;6185269;23;20183;-67
2021/08/12 05:02:52;;;;;;;8.03;6.13;;;21.60;99.90;;;;;;6185078;23;20177;-66
2021/08/12 05:05:18;;;;;;;8.03;7.13;;;21.70;99.90;;;;;;6158808;23;20707;-66
2021/08/12 05:07:43;;;;;;;8.47;6.27;;;21.70;99.90;;;;;;6185670;23;20400;-63
2021/08/12 05:10:09;;;;;;;7.97;6.00;;;21.80;99.90;;;;;;6186218;23;20161;-64
2021/08/12 05:12:35;;;;;;;9.97;5.70;;;21.80;99.90;;;;;;6159956;23;20503;-66
2021/08/12 05:15:00;;;;;;;7.70;6.70;;;21.90;99.90;;;;;;6186448;23;20486;-66
2021/08/12 05:17:27;;;;;;;7.23;5.63;;;21.90;99.90;;;;;;6186300;23;20262;-64
2021/08/12 05:19:52;;;;;;;7.27;6.20;;;22.00;99.90;;;;;;6186341;23;20162;-63
2021/08/12 05:22:22;;;;;;;11.30;6.70;;;22.10;99.90;;;;;;6186196;23;20441;-63
2021/08/12 05:24:48;;;;;;;10.70;6.70;;;22.10;99.90;;;;;;6186657;23;20159;-63
2021/08/12 05:27:14;;;;;;;8.70;6.23;;;22.20;99.90;;;;;;6186222;23;20388;-66
2021/08/12 05:29:39;;;;;;;9.30;7.03;;;22.20;99.90;;;;;;6186279;23;20387;-66
2021/08/12 05:32:05;;;;;;;9.50;6.60;;;22.20;99.90;;;;;;6185863;23;20198;-63
2021/08/12 05:34:31;;;;;;;11.00;7.80;;;22.30;99.90;;;;;;6186905;23;20158;-63
2021/08/12 05:36:56;;;;;;;10.70;6.90;;;22.30;99.90;;;;;;6185854;23;20270;-68
2021/08/12 05:39:22;;;;;;;8.33;5.93;;;22.40;99.90;;;;;;6186802;23;20184;-66
2021/08/12 05:41:48;;;;;;;9.27;6.50;;;22.50;99.90;;;;;;6185678;23;20228;-66
2021/08/12 05:44:13;;;;;;;8.43;6.40;;;22.50;99.90;;;;;;6185875;23;20656;-68
2021/08/12 05:46:39;;;;;;;8.13;5.90;;;22.60;99.90;;;;;;6186026;23;20597;-66
2021/08/12 05:49:04;;;;;;;8.10;6.53;;;22.70;99.90;;;;;;6185898;23;20161;-67
2021/08/12 05:51:31;;;;;;;10.27;6.17;;;22.70;99.90;;;;;;6184495;23;20370;-67
2021/08/12 05:53:57;;;;;;;10.43;6.97;;;22.80;99.90;;;;;;6158259;23;20174;-63
2021/08/12 05:56:23;;;;;;;7.90;6.20;;;22.90;99.90;;;;;;6185498;23;20372;-63
2021/08/12 05:58:49;;;;;;;7.57;6.20;;;23.00;99.90;;;;;;6158627;23;20446;-63
2021/08/12 06:01:14;;;;;;;7.47;6.60;;;23.10;99.90;;;;;;6184621;23;20158;-67
2021/08/12 06:03:40;;;;;;;7.90;5.47;;;23.10;99.90;;;;;;6185775;23;20205;-63
2021/08/12 06:06:05;;;;;;;7.00;5.63;;;23.20;99.90;;;;;;6185776;23;20197;-67
2021/08/12 06:08:31;;;;;;;7.90;4.90;;;23.30;99.90;;;;;;6186168;23;20174;-63
2021/08/12 06:10:56;;;;;;;7.10;6.33;;;23.40;99.90;;;;;;6159384;23;20605;-64
2021/08/12 06:13:22;;;;;;;10.53;6.10;;;23.50;99.90;;;;;;6184528;23;20195;-63
2021/08/12 06:15:48;;;;;;;6.13;5.53;;;23.60;99.90;;;;;;6185814;23;20608;-65
2021/08/12 06:18:14;;;;;;;7.70;5.80;;;23.70;99.90;;;;;;6184269;23;20263;-67
2021/08/12 06:20:41;;;;;;;7.03;6.10;;;23.70;99.90;;;;;;6159545;23;20206;-63
2021/08/12 06:23:08;;;;;;;7.50;6.40;;;23.80;99.90;;;;;;6184526;23;20437;-63
2021/08/12 06:25:35;;;;;;;6.80;5.93;;;23.90;99.90;;;;;;6185611;23;20380;-63
2021/08/12 06:28:03;;;;;;;10.23;6.10;;;24.00;99.90;;;;;;6185641;23;20434;-63
2021/08/12 06:30:28;;;;;;;8.23;6.50;;;24.10;99.90;;;;;;6183921;23;20371;-67
2021/08/12 06:32:54;;;;;;;8.37;6.60;;;24.10;99.90;;;;;;6184918;23;20963;-63
2021/08/12 06:35:20;;;;;;;6.63;5.60;;;24.20;99.90;;;;;;6183279;23;20200;-67
2021/08/12 06:37:51;;;;;;;7.67;5.50;;;24.30;99.90;;;;;;6157000;23;20299;-67
2021/08/12 06:40:22;;;;;;;10.33;5.73;;;24.40;99.90;;;;;;6184039;23;20832;-63
2021/08/12 06:42:48;;;;;;;6.53;5.93;;;24.50;99.90;;;;;;6157896;23;20912;-68
2021/08/12 06:45:21;;;;;;;7.87;6.20;;;24.60;99.90;;;;;;6184205;23;20375;-64
2021/08/12 06:47:48;;;;;;;7.47;6.40;;;24.70;99.90;;;;;;6187039;23;20409;-63
2021/08/12 06:50:16;;;;;;;6.70;6.00;;;24.70;99.90;;;;;;6186125;23;20371;-64
2021/08/12 06:52:42;;;;;;;6.20;5.60;;;24.80;99.90;;;;;;6186817;23;20411;-67
2021/08/12 06:55:08;;;;;;;7.30;5.80;;;24.90;99.90;;;;;;6185597;23;20449;-67
2021/08/12 06:57:34;;;;;;;6.70;5.80;;;25.00;99.90;;;;;;6184268;23;20410;-63
2021/08/12 07:00:00;;;;;;;8.43;5.73;;;25.10;99.90;;;;;;6157664;23;20730;-63
2021/08/12 07:02:25;;;;;;;7.40;5.50;;;25.20;99.90;;;;;;6184427;23;20263;-67
2021/08/12 07:04:51;;;;;;;6.13;5.27;;;25.30;99.90;;;;;;6157821;23;20187;-66
2021/08/12 07:07:16;;;;;;;5.77;4.87;;;25.30;99.90;;;;;;6184880;23;20417;-68
2021/08/12 07:09:42;;;;;;;6.47;5.70;;;25.40;99.90;;;;;;6185459;23;20240;-67
2021/08/12 07:12:09;;;;;;;5.57;5.03;;;25.50;99.90;;;;;;6160810;23;20644;-64
2021/08/12 07:14:35;;;;;;;7.20;5.80;;;25.60;99.90;;;;;;6185303;23;20226;-67
2021/08/12 07:17:00;;;;;;;5.73;5.20;;;25.70;99.90;;;;;;6183480;23;20728;-63
2021/08/12 07:19:27;;;;;;;6.50;5.13;;;25.80;99.90;;;;;;6157919;23;20384;-68
2021/08/12 07:21:53;;;;;;;5.83;5.23;;;25.80;99.90;;;;;;6182877;23;20197;-63
2021/08/12 07:24:19;;;;;;;5.27;4.77;;;25.90;99.90;;;;;;6183532;23;20387;-64
2021/08/12 07:26:47;;;;;;;5.63;5.13;;;26.00;99.90;;;;;;6184037;23;20174;-64
2021/08/12 07:29:16;;;;;;;7.40;5.47;;;26.10;99.90;;;;;;6158272;23;20389;-67
2021/08/12 07:31:42;;;;;;;7.53;5.40;;;26.20;99.90;;;;;;6186820;23;20444;-67
2021/08/12 07:34:09;;;;;;;6.57;5.93;;;26.20;99.90;;;;;;6160147;23;20381;-66
2021/08/12 07:36:35;;;;;;;5.60;4.90;;;26.30;99.90;;;;;;6184608;23;20526;-67
2021/08/12 07:39:02;;;;;;;5.80;4.93;;;26.40;99.90;;;;;;6185039;23;20396;-67
2021/08/12 07:41:28;;;;;;;6.00;4.53;;;26.50;99.90;;;;;;6185516;23;20794;-67
2021/08/12 07:43:54;;;;;;;6.10;5.40;;;26.50;99.90;;;;;;6157434;23;20404;-67
2021/08/12 07:46:19;;;;;;;5.90;5.40;;;26.60;99.90;;;;;;6185314;23;20581;-67
2021/08/12 07:48:45;;;;;;;5.30;4.37;;;26.70;99.90;;;;;;6186325;23;20358;-67
2021/08/12 07:51:10;;;;;;;6.20;5.03;;;26.80;99.90;;;;;;6183644;23;20190;-63
2021/08/12 07:53:36;;;;;;;5.80;5.23;;;26.80;99.90;;;;;;6184224;23;20162;-68
2021/08/12 07:56:02;;;;;;;8.30;5.00;;;26.90;99.90;;;;;;6183156;23;20193;-68
2021/08/12 07:58:28;;;;;;;5.87;5.27;;;27.00;99.90;;;;;;6183926;23;20569;-64
2021/08/12 08:00:53;;;;;;;5.30;4.80;;;27.10;99.90;;;;;;6182640;23;20396;-68
2021/08/12 08:03:20;;;;;;;7.70;5.50;;;27.10;99.90;;;;;;6183421;23;20182;-67
2021/08/12 08:05:45;;;;;;;5.40;4.90;;;27.20;99.90;;;;;;6186427;23;20200;-63
2021/08/12 08:08:11;;;;;;;6.53;5.17;;;27.20;99.90;;;;;;6185859;23;20748;-63
2021/08/12 08:10:36;;;;;;;6.80;4.63;;;27.30;99.90;;;;;;6186320;23;20632;-64
2021/08/12 08:13:02;;;;;;;5.70;4.60;;;27.40;99.90;;;;;;6185574;23;20488;-63
2021/08/12 08:15:28;;;;;;;6.17;4.60;;;27.50;99.90;;;;;;6160330;23;20163;-67
2021/08/12 08:17:53;;;;;;;4.50;4.10;;;27.50;99.90;;;;;;6160446;23;20495;-67
2021/08/12 08:20:19;;;;;;;6.53;4.83;;;27.60;99.90;;;;;;6186201;23;20265;-68
2021/08/12 08:22:45;;;;;;;5.33;4.53;;;27.70;99.90;;;;;;6185279;23;20185;-63
2021/08/12 08:25:12;;;;;;;5.67;4.70;;;27.70;99.90;;;;;;6182868;23;20154;-68
2021/08/12 08:27:37;;;;;;;5.27;4.77;;;27.80;99.90;;;;;;6183683;23;20897;-63
2021/08/12 08:30:04;;;;;;;4.60;4.20;;;27.90;99.90;;;;;;6182898;23;20376;-64
2021/08/12 08:32:29;;;;;;;6.23;4.80;;;28.00;99.90;;;;;;6183437;23;20214;-66
2021/08/12 08:34:55;;;;;;;4.97;4.47;;;28.10;99.90;;;;;;6184160;23;20882;-65
2021/08/12 08:37:21;;;;;;;4.30;3.90;;;28.10;99.90;;;;;;6184013;23;20675;-64
2021/08/12 08:39:47;;;;;;;4.90;4.27;;;28.20;99.90;;;;;;6185707;23;20384;-64
2021/08/12 08:42:13;;;;;;;4.03;3.67;;;28.20;99.90;;;;;;6159159;23;20509;-63
2021/08/12 08:44:45;;;;;;;4.47;4.00;;;28.30;99.50;;;;;;6184975;23;20151;-67
2021/08/12 08:47:13;;;;;;;5.20;4.70;;;28.40;99.50;;;;;;6184202;23;20796;-68
2021/08/12 08:49:42;;;;;;;4.17;3.77;;;28.40;99.70;;;;;;6185916;23;20839;-63
2021/08/12 08:52:09;;;;;;;5.00;4.43;;;28.50;99.70;;;;;;6184124;23;20775;-63
2021/08/12 08:54:37;;;;;;;5.57;4.40;;;28.50;99.70;;;;;;6184752;23;20842;-63
2021/08/12 08:57:04;;;;;;;5.40;4.17;;;28.60;99.60;;;;;;6185940;23;20396;-63
2021/08/12 08:59:32;;;;;;;5.30;4.80;;;28.60;99.60;;;;;;6186016;23;20380;-64
2021/08/12 09:01:58;;;;;;;4.30;3.90;;;28.60;99.30;;;;;;6184819;23;20417;-69
2021/08/12 09:04:24;;;;;;;5.23;3.73;;;28.70;99.20;;;;;;6185412;23;20442;-67
2021/08/12 09:06:49;;;;;;;4.67;4.27;;;28.70;99.20;;;;;;6183904;23;20544;-67
2021/08/12 09:09:15;;;;;;;4.90;3.47;;;28.70;99.00;;;;;;6182938;23;20589;-64
2021/08/12 09:11:41;;;;;;;5.90;4.10;;;28.80;99.10;;;;;;6180909;23;20203;-68
2021/08/12 09:14:30;;;;;;;5.43;4.40;;;28.90;99.10;;;;;;6181939;23;20160;-63
2021/08/12 09:16:55;;;;;;;4.30;3.90;;;29.10;97.80;;;;;;6181868;23;20933;-63
2021/08/12 09:19:22;;;;;;;6.30;4.53;;;29.20;98.10;;;;;;6182159;23;20418;-63
2021/08/12 09:21:52;;;;;;;4.40;4.00;;;29.40;98.00;;;;;;6180151;23;20532;-67
2021/08/12 09:24:18;;;;;;;4.37;3.63;;;29.40;98.10;;;;;;6180195;23;20391;-67
2021/08/12 09:26:44;;;;;;;5.10;4.10;;;29.50;97.90;;;;;;6181139;23;20405;-67
2021/08/12 09:29:24;;;;;;;5.30;4.57;;;29.60;97.00;;;;;;6181262;23;20387;-67
2021/08/12 09:32:00;;;;;;;5.37;4.37;;;29.60;97.30;;;;;;6182965;23;20938;-64
2021/08/12 09:34:42;;;;;;;4.90;4.40;;;29.60;97.70;;;;;;6173355;23;20438;-67
2021/08/12 09:37:09;;;;;;;5.00;3.80;;;29.60;97.60;;;;;;6183628;23;20515;-63
2021/08/12 09:39:35;;;;;;;4.87;3.73;;;29.60;97.10;;;;;;6182692;23;20384;-67
2021/08/12 09:42:03;;;;;;;4.20;3.83;;;29.50;96.70;;;;;;6154495;23;20483;-63
2021/08/12 09:44:53;;;;;;;4.60;3.53;;;29.50;97.10;;;;;;6181819;23;20855;-64
2021/08/12 09:47:18;;;;;;;5.30;4.00;;;29.60;97.30;;;;;;6183948;23;20407;-65
2021/08/12 09:49:55;;;;;;;4.40;3.77;;;29.50;97.50;;;;;;6182625;23;20382;-65
2021/08/12 09:52:26;;;;;;;4.37;3.97;;;29.50;97.40;;;;;;6183808;23;20190;-63
2021/08/12 09:55:10;;;;;;;4.67;3.80;;;29.40;97.10;;;;;;6182004;23;20369;-67
2021/08/12 09:57:47;;;;;;;4.50;3.70;;;29.40;97.60;;;;;;6183412;23;20421;-65
2021/08/12 10:00:25;;;;;;;4.57;3.00;;;29.40;97.40;;;;;;6180235;23;20776;-62
2021/08/12 10:02:51;;;;;;;4.87;3.17;;;29.50;96.70;;;;;;6180841;23;20413;-62
2021/08/12 10:05:17;;;;;;;3.77;3.37;;;29.50;96.70;;;;;;6180994;23;20374;-63
2021/08/12 10:07:44;;;;;;;3.83;3.40;;;29.50;96.90;;;;;;6156097;23;20512;-63
2021/08/12 10:10:13;;;;;;;4.03;3.63;;;29.60;96.90;;;;;;6181012;23;20173;-63
2021/08/12 10:12:46;;;;;;;6.77;3.90;;;29.60;96.70;;;;;;6149164;23;20455;-65
2021/08/12 10:15:12;;;;;;;4.70;3.93;;;29.60;96.70;;;;;;6181611;23;20452;-63
2021/08/12 10:17:40;;;;;;;4.00;3.60;;;29.60;96.60;;;;;;6184011;23;20421;-65
2021/08/12 10:20:08;;;;;;;6.20;4.10;;;29.70;96.20;;;;;;6159281;23;20440;-67
2021/08/12 10:22:34;;;;;;;4.20;3.37;;;29.70;97.10;;;;;;6184452;23;20393;-65
2021/08/12 10:25:00;;;;;;;7.13;3.50;;;29.60;96.60;;;;;;6157334;23;20433;-66
2021/08/12 10:27:25;;;;;;;3.80;3.40;;;29.70;96.30;;;;;;6183451;23;20243;-62
2021/08/12 10:29:52;;;;;;;4.73;3.77;;;29.70;96.40;;;;;;6154608;23;20418;-63
2021/08/12 10:32:19;;;;;;;4.37;3.80;;;29.70;96.30;;;;;;6184028;23;20234;-67
2021/08/12 10:34:44;;;;;;;6.43;3.53;;;29.80;94.80;;;;;;6180795;23;20419;-63
2021/08/12 10:37:11;;;;;;;5.00;3.37;;;29.80;95.30;;;;;;6184181;23;20509;-62
2021/08/12 10:39:39;;;;;;;5.30;3.50;;;29.90;96.20;;;;;;6182996;23;20165;-68
2021/08/12 10:42:06;;;;;;;5.77;4.23;;;29.80;95.20;;;;;;6184920;23;20388;-68
2021/08/12 10:44:33;;;;;;;4.40;4.00;;;29.80;95.60;;;;;;6182997;23;20398;-68
2021/08/12 10:46:59;;;;;;;5.40;4.23;;;29.80;96.40;;;;;;6185215;23;20399;-67
2021/08/12 10:49:33;;;;;;;4.37;3.87;;;29.80;96.70;;;;;;6157384;23;20397;-67
2021/08/12 10:52:00;;;;;;;4.70;3.50;;;29.80;94.60;;;;;;6183600;23;20200;-67
2021/08/12 10:54:25;;;;;;;3.83;2.90;;;29.90;92.80;;;;;;6184159;23;20448;-67
2021/08/12 10:57:19;;;;;;;4.20;3.40;;;29.80;95.80;;;;;;6182475;23;20392;-62
2021/08/12 10:59:45;;;;;;;5.10;3.73;;;29.80;96.30;;;;;;6181689;23;20196;-66
2021/08/12 11:02:32;;;;;;;5.00;3.03;;;29.90;96.00;;;;;;6181488;23;20403;-67
2021/08/12 11:04:59;;;;;;;3.97;2.93;;;29.90;96.40;;;;;;6156832;23;20394;-66
2021/08/12 11:07:40;;;;;;;4.57;4.10;;;29.80;96.50;;;;;;6181997;23;20390;-67
2021/08/12 11:10:07;;;;;;;4.30;3.40;;;29.90;95.50;;;;;;6181207;23;20456;-65
2021/08/12 11:12:57;;;;;;;4.80;3.50;;;29.90;96.10;;;;;;6178758;23;20450;-66
2021/08/12 11:15:41;;;;;;;3.83;3.40;;;29.90;96.50;;;;;;6183798;23;20375;-63
2021/08/12 11:18:13;;;;;;;3.60;3.30;;;29.90;96.40;;;;;;6181472;23;20510;-63
2021/08/12 11:20:42;;;;;;;5.93;3.30;;;29.90;96.40;;;;;;6157284;23;20399;-67
2021/08/12 11:23:17;;;;;;;4.10;3.70;;;29.90;96.40;;;;;;6182777;23;20472;-63
2021/08/12 11:26:04;;;;;;;4.70;3.43;;;29.80;96.80;;;;;;6181946;23;20433;-65
2021/08/12 11:28:38;;;;;;;3.93;3.53;;;29.70;96.60;;;;;;6179953;23;20423;-67
2021/08/12 11:31:04;;;;;;;4.93;4.10;;;29.70;96.60;;;;;;6157855;23;20437;-65
2021/08/12 11:33:32;;;;;;;3.80;3.50;;;29.80;94.30;;;;;;6185177;23;20490;-62
2021/08/12 11:36:22;;;;;;;3.40;3.10;;;29.90;94.40;;;;;;6184918;23;20767;-67
2021/08/12 11:38:50;;;;;;;5.57;4.40;;;30.00;94.30;;;;;;6185264;23;20407;-62
2021/08/12 11:41:17;;;;;;;4.20;3.80;;;30.00;95.80;;;;;;6185609;23;20367;-67
2021/08/12 11:43:44;;;;;;;5.97;3.47;;;30.00;95.60;;;;;;6184503;23;20657;-66
2021/08/12 11:46:11;;;;;;;5.57;4.17;;;30.00;95.90;;;;;;6184213;23;20400;-63
2021/08/12 11:48:37;;;;;;;4.13;3.73;;;29.90;96.30;;;;;;6184634;23;20415;-65
2021/08/12 11:51:04;;;;;;;4.30;3.50;;;29.80;96.20;;;;;;6183937;23;20592;-65
2021/08/12 11:53:44;;;;;;;4.67;3.60;;;29.80;96.20;;;;;;6155196;23;20521;-66
2021/08/12 11:56:17;;;;;;;3.80;3.30;;;29.90;95.10;;;;;;6180845;23;20378;-63
2021/08/12 11:58:48;;;;;;;4.27;3.80;;;29.90;94.40;;;;;;6153422;23;20910;-68
2021/08/12 12:01:16;;;;;;;4.10;3.70;;;29.90;96.00;;;;;;6155044;23;20409;-67
2021/08/12 12:03:43;;;;;;;5.37;4.00;;;29.90;94.90;;;;;;6182203;23;20406;-66
2021/08/12 12:06:09;;;;;;;5.00;3.53;;;29.90;95.50;;;;;;6180900;23;20588;-66
2021/08/12 12:08:35;;;;;;;4.27;3.33;;;30.00;93.60;;;;;;6183562;23;20407;-64
2021/08/12 12:11:09;;;;;;;4.20;3.63;;;30.00;95.70;;;;;;6183952;23;20193;-65
2021/08/12 12:13:34;;;;;;;3.97;3.30;;;30.00;95.90;;;;;;6182878;23;20739;-66
2021/08/12 12:16:00;;;;;;;4.10;3.80;;;30.00;96.10;;;;;;6181055;23;20375;-65
2021/08/12 12:18:36;;;;;;;4.37;3.53;;;30.00;96.10;;;;;;6180872;23;20182;-65
2021/08/12 12:21:11;;;;;;;4.10;3.70;;;30.10;95.10;;;;;;6181915;23;20135;-71
2021/08/12 12:23:42;;;;;;;5.20;3.47;;;30.20;94.80;;;;;;6155155;23;20413;-66
2021/08/12 12:26:27;;;;;;;5.23;3.87;;;30.30;93.80;;;;;;6157361;23;20373;-71
2021/08/12 12:28:54;;;;;;;6.90;3.83;;;30.40;94.00;;;;;;6182974;23;20378;-70
2021/08/12 12:31:21;;;;;;;4.03;3.57;;;30.50;93.70;;;;;;6182971;23;20431;-67
2021/08/12 12:33:57;;;;;;;4.37;3.97;;;30.50;93.70;;;;;;6183934;23;20387;-69
2021/08/12 12:36:23;;;;;;;3.80;3.50;;;30.50;93.50;;;;;;6155331;23;20720;-64
2021/08/12 12:38:51;;;;;;;4.93;3.30;;;30.50;93.10;;;;;;6185023;23;20444;-67
2021/08/12 12:41:16;;;;;;;5.67;4.27;;;30.50;93.30;;;;;;6181465;23;20151;-69
2021/08/12 12:43:42;;;;;;;4.80;3.70;;;30.60;93.00;;;;;;6158518;23;20398;-68
2021/08/12 12:46:08;;;;;;;6.30;3.77;;;30.60;93.20;;;;;;6184782;23;20152;-69
2021/08/12 12:48:38;;;;;;;4.53;3.80;;;30.70;93.10;;;;;;6158968;23;20268;-66
2021/08/12 12:51:05;;;;;;;7.27;3.63;;;30.80;93.40;;;;;;6182752;23;20701;-71